sensor_id;sensor_type;location;lat;lon;timestamp;temperature;humidity
40816;DHT22;26535;48.788;9.214;2023-06-26T05:01:36;20.30;85.00
40816;DHT22;26535;48.788;9.214;2023-06-26T05:04:05;20.20;85.30
40816;DHT22;26535;48.788;9.214;2023-06-26T05:06:31;20.20;85.30
40816;DHT22;26535;48.788;9.214;2023-06-26T05:08:57;20.30;85.40
40816;DHT22;26535;48.788;9.214;2023-06-26T05:11:23;20.20;85.40
40816;DHT22;26535;48.788;9.214;2023-06-26T05:13:52;20.40;85.30
40816;DHT22;26535;48.788;9.214;2023-06-26T05:16:18;20.40;85.20
40816;DHT22;26535;48.788;9.214;2023-06-26T05:18:44;20.50;84.90
40816;DHT22;26535;48.788;9.214;2023-06-26T05:21:10;20.40;84.70
40816;DHT22;26535;48.788;9.214;2023-06-26T05:23:35;20.50;84.40
40816;DHT22;26535;48.788;9.214;2023-06-26T05:26:02;20.60;84.70
40816;DHT22;26535;48.788;9.214;2023-06-26T05:28:29;20.70;84.40
40816;DHT22;26535;48.788;9.214;2023-06-26T05:30:57;20.70;84.00
40816;DHT22;26535;48.788;9.214;2023-06-26T05:33:24;20.80;83.80
40816;DHT22;26535;48.788;9.214;2023-06-26T05:35:52;20.90;83.70
40816;DHT22;26535;48.788;9.214;2023-06-26T05:38:18;21.00;83.40
40816;DHT22;26535;48.788;9.214;2023-06-26T05:40:44;21.00;83.20
40816;DHT22;26535;48.788;9.214;2023-06-26T05:43:10;21.00;83.10
40816;DHT22;26535;48.788;9.214;2023-06-26T05:45:36;21.10;82.90
40816;DHT22;26535;48.788;9.214;2023-06-26T05:48:02;21.20;82.90
40816;DHT22;26535;48.788;9.214;2023-06-26T05:50:29;21.30;82.60
40816;DHT22;26535;48.788;9.214;2023-06-26T05:52:55;21.40;82.50
40816;DHT22;26535;48.788;9.214;2023-06-26T05:55:21;21.50;82.30
40816;DHT22;26535;48.788;9.214;2023-06-26T05:57:47;21.60;82.10
40816;DHT22;26535;48.788;9.214;2023-06-26T06:00:14;21.70;81.50
40816;DHT22;26535;48.788;9.214;2023-06-26T06:02:42;21.90;81.10
40816;DHT22;26535;48.788;9.214;2023-06-26T06:05:08;21.90;80.50
40816;DHT22;26535;48.788;9.214;2023-06-26T06:07:34;22.00;80.60
40816;DHT22;26535;48.788;9.214;2023-06-26T06:10:01;22.10;80.50
40816;DHT22;26535;48.788;9.214;2023-06-26T06:12:27;22.20;80.30
40816;DHT22;26535;48.788;9.214;2023-06-26T06:14:53;22.30;79.90
40816;DHT22;26535;48.788;9.214;2023-06-26T06:17:20;22.40;79.50
40816;DHT22;26535;48.788;9.214;2023-06-26T06:19:46;22.60;79.20
40816;DHT22;26535;48.788;9.214;2023-06-26T06:22:12;22.70;78.90
40816;DHT22;26535;48.788;9.214;2023-06-26T06:24:37;22.80;78.80
40816;DHT22;26535;48.788;9.214;2023-06-26T06:27:03;22.90;78.20
40816;DHT22;26535;48.788;9.214;2023-06-26T06:29:29;23.00;78.00
40816;DHT22;26535;48.788;9.214;2023-06-26T06:31:55;23.20;77.80
40816;DHT22;26535;48.788;9.214;2023-06-26T06:34:20;23.20;77.60
40816;DHT22;26535;48.788;9.214;2023-06-26T06:36:46;23.30;77.40
40816;DHT22;26535;48.788;9.214;2023-06-26T06:39:12;23.40;77.30
40816;DHT22;26535;48.788;9.214;2023-06-26T06:41:38;23.60;76.80
40816;DHT22;26535;48.788;9.214;2023-06-26T06:44:05;23.70;76.50
40816;DHT22;26535;48.788;9.214;2023-06-26T06:46:31;23.80;76.30
40816;DHT22;26535;48.788;9.214;2023-06-26T06:48:56;24.00;76.20
40816;DHT22;26535;48.788;9.214;2023-06-26T06:51:22;24.10;76.00
40816;DHT22;26535;48.788;9.214;2023-06-26T06:53:48;24.20;75.30
40816;DHT22;26535;48.788;9.214;2023-06-26T06:56:14;24.40;75.00
40816;DHT22;26535;48.788;9.214;2023-06-26T06:58:40;24.60;74.50
40816;DHT22;26535;48.788;9.214;2023-06-26T07:01:11;24.70;74.30
40816;DHT22;26535;48.788;9.214;2023-06-26T07:03:37;24.80;74.10
40816;DHT22;26535;48.788;9.214;2023-06-26T07:06:02;25.00;73.80
40816;DHT22;26535;48.788;9.214;2023-06-26T07:08:29;25.10;73.60
40816;DHT22;26535;48.788;9.214;2023-06-26T07:10:55;25.30;72.70
40816;DHT22;26535;48.788;9.214;2023-06-26T07:13:22;25.40;72.20
40816;DHT22;26535;48.788;9.214;2023-06-26T07:15:48;25.50;72.20
40816;DHT22;26535;48.788;9.214;2023-06-26T07:18:14;25.60;72.10
40816;DHT22;26535;48.788;9.214;2023-06-26T07:20:40;25.80;71.90
40816;DHT22;26535;48.788;9.214;2023-06-26T07:23:07;25.90;71.50
40816;DHT22;26535;48.788;9.214;2023-06-26T07:25:33;26.00;70.70
40816;DHT22;26535;48.788;9.214;2023-06-26T07:27:59;26.10;70.60
40816;DHT22;26535;48.788;9.214;2023-06-26T07:30:24;26.10;70.40
40816;DHT22;26535;48.788;9.214;2023-06-26T07:32:50;26.20;70.60
40816;DHT22;26535;48.788;9.214;2023-06-26T07:35:16;26.30;70.20
40816;DHT22;26535;48.788;9.214;2023-06-26T07:37:42;26.50;70.10
40816;DHT22;26535;48.788;9.214;2023-06-26T07:40:09;26.50;69.40
40816;DHT22;26535;48.788;9.214;2023-06-26T07:42:35;26.60;69.10
40816;DHT22;26535;48.788;9.214;2023-06-26T07:45:00;26.60;68.00
40816;DHT22;26535;48.788;9.214;2023-06-26T07:47:26;26.70;68.80
40816;DHT22;26535;48.788;9.214;2023-06-26T07:49:52;26.90;69.00
40816;DHT22;26535;48.788;9.214;2023-06-26T07:52:19;27.00;68.50
40816;DHT22;26535;48.788;9.214;2023-06-26T07:54:44;27.10;68.00
40816;DHT22;26535;48.788;9.214;2023-06-26T07:57:11;27.30;67.50
40816;DHT22;26535;48.788;9.214;2023-06-26T07:59:38;27.40;66.90
40816;DHT22;26535;48.788;9.214;2023-06-26T08:02:07;27.50;66.90
40816;DHT22;26535;48.788;9.214;2023-06-26T08:04:33;27.60;66.60
40816;DHT22;26535;48.788;9.214;2023-06-26T08:06:59;27.70;65.90
40816;DHT22;26535;48.788;9.214;2023-06-26T08:09:27;27.90;65.40
40816;DHT22;26535;48.788;9.214;2023-06-26T08:11:54;27.90;64.90
40816;DHT22;26535;48.788;9.214;2023-06-26T08:14:20;28.00;65.00
40816;DHT22;26535;48.788;9.214;2023-06-26T08:16:49;28.10;64.30
40816;DHT22;26535;48.788;9.214;2023-06-26T08:19:16;28.20;64.30
40816;DHT22;26535;48.788;9.214;2023-06-26T08:21:45;28.30;64.10
40816;DHT22;26535;48.788;9.214;2023-06-26T08:24:12;28.50;64.00
40816;DHT22;26535;48.788;9.214;2023-06-26T08:26:48;28.60;63.80
40816;DHT22;26535;48.788;9.214;2023-06-26T08:29:14;28.90;63.20
40816;DHT22;26535;48.788;9.214;2023-06-26T08:31:41;29.00;62.90
40816;DHT22;26535;48.788;9.214;2023-06-26T08:34:07;29.20;62.00
40816;DHT22;26535;48.788;9.214;2023-06-26T08:36:33;29.30;61.90
40816;DHT22;26535;48.788;9.214;2023-06-26T08:38:59;29.40;61.20
40816;DHT22;26535;48.788;9.214;2023-06-26T08:41:25;29.50;60.80
40816;DHT22;26535;48.788;9.214;2023-06-26T08:43:51;29.60;61.10
40816;DHT22;26535;48.788;9.214;2023-06-26T08:46:19;29.70;60.80
40816;DHT22;26535;48.788;9.214;2023-06-26T08:49:08;29.70;60.90
40816;DHT22;26535;48.788;9.214;2023-06-26T08:51:36;29.70;60.60
40816;DHT22;26535;48.788;9.214;2023-06-26T08:54:06;29.90;60.50
40816;DHT22;26535;48.788;9.214;2023-06-26T08:56:45;30.00;59.80
40816;DHT22;26535;48.788;9.214;2023-06-26T08:59:12;30.10;59.60
40816;DHT22;26535;48.788;9.214;2023-06-26T09:01:40;30.20;59.20
40816;DHT22;26535;48.788;9.214;2023-06-26T09:04:06;30.00;59.10
40816;DHT22;26535;48.788;9.214;2023-06-26T09:06:33;30.00;59.50
40816;DHT22;26535;48.788;9.214;2023-06-26T09:08:59;30.20;59.20
40816;DHT22;26535;48.788;9.214;2023-06-26T09:11:27;30.30;59.20
40816;DHT22;26535;48.788;9.214;2023-06-26T09:13:53;30.50;59.30
40816;DHT22;26535;48.788;9.214;2023-06-26T09:16:24;30.50;58.30
40816;DHT22;26535;48.788;9.214;2023-06-26T09:18:52;30.60;58.90
40816;DHT22;26535;48.788;9.214;2023-06-26T09:21:18;30.70;58.50
40816;DHT22;26535;48.788;9.214;2023-06-26T09:23:46;30.80;58.90
40816;DHT22;26535;48.788;9.214;2023-06-26T09:26:17;31.00;58.90
40816;DHT22;26535;48.788;9.214;2023-06-26T09:28:43;31.10;57.50
40816;DHT22;26535;48.788;9.214;2023-06-26T09:31:12;31.20;57.80
40816;DHT22;26535;48.788;9.214;2023-06-26T09:33:38;31.20;57.20
40816;DHT22;26535;48.788;9.214;2023-06-26T09:36:08;31.30;57.30
40816;DHT22;26535;48.788;9.214;2023-06-26T09:38:35;31.50;57.40
40816;DHT22;26535;48.788;9.214;2023-06-26T09:41:05;31.50;57.20
40816;DHT22;26535;48.788;9.214;2023-06-26T09:43:31;31.60;56.80
40816;DHT22;26535;48.788;9.214;2023-06-26T09:46:00;31.80;56.60
40816;DHT22;26535;48.788;9.214;2023-06-26T09:48:28;32.00;56.70
40816;DHT22;26535;48.788;9.214;2023-06-26T09:50:56;32.30;56.30
40816;DHT22;26535;48.788;9.214;2023-06-26T09:53:25;32.60;56.20
40816;DHT22;26535;48.788;9.214;2023-06-26T09:55:51;32.80;55.90
40816;DHT22;26535;48.788;9.214;2023-06-26T09:58:20;33.00;55.50
40816;DHT22;26535;48.788;9.214;2023-06-26T10:00:47;33.10;55.10
40816;DHT22;26535;48.788;9.214;2023-06-26T10:03:13;32.80;55.20
40816;DHT22;26535;48.788;9.214;2023-06-26T10:05:50;32.70;55.00
40816;DHT22;26535;48.788;9.214;2023-06-26T10:08:17;32.50;55.50
40816;DHT22;26535;48.788;9.214;2023-06-26T10:10:43;32.60;55.90
40816;DHT22;26535;48.788;9.214;2023-06-26T10:13:21;32.70;55.80
40816;DHT22;26535;48.788;9.214;2023-06-26T10:15:48;32.60;55.40
40816;DHT22;26535;48.788;9.214;2023-06-26T10:18:16;32.40;56.10
40816;DHT22;26535;48.788;9.214;2023-06-26T10:20:45;32.40;56.60
40816;DHT22;26535;48.788;9.214;2023-06-26T10:23:14;32.50;56.90
40816;DHT22;26535;48.788;9.214;2023-06-26T10:25:42;32.70;56.90
40816;DHT22;26535;48.788;9.214;2023-06-26T10:28:10;32.80;56.90
40816;DHT22;26535;48.788;9.214;2023-06-26T10:30:39;32.80;56.90
40816;DHT22;26535;48.788;9.214;2023-06-26T10:33:05;32.70;57.20
40816;DHT22;26535;48.788;9.214;2023-06-26T10:35:33;32.20;57.60
40816;DHT22;26535;48.788;9.214;2023-06-26T10:38:02;32.10;58.30
40816;DHT22;26535;48.788;9.214;2023-06-26T10:40:48;31.80;58.80
40816;DHT22;26535;48.788;9.214;2023-06-26T10:43:18;31.60;59.60
40816;DHT22;26535;48.788;9.214;2023-06-26T10:45:49;31.50;60.10
40816;DHT22;26535;48.788;9.214;2023-06-26T10:48:21;31.60;59.60
40816;DHT22;26535;48.788;9.214;2023-06-26T10:50:48;31.40;59.60
40816;DHT22;26535;48.788;9.214;2023-06-26T10:55:55;31.20;57.80
40816;DHT22;26535;48.788;9.214;2023-06-26T10:58:41;31.10;58.10
40816;DHT22;26535;48.788;9.214;2023-06-26T11:01:21;31.10;57.50
40816;DHT22;26535;48.788;9.214;2023-06-26T11:04:04;31.20;58.70
40816;DHT22;26535;48.788;9.214;2023-06-26T11:06:32;31.50;58.10
40816;DHT22;26535;48.788;9.214;2023-06-26T11:09:17;31.50;58.30
40816;DHT22;26535;48.788;9.214;2023-06-26T11:14:23;32.00;57.50
40816;DHT22;26535;48.788;9.214;2023-06-26T11:16:55;32.00;57.00
40816;DHT22;26535;48.788;9.214;2023-06-26T11:19:21;32.10;57.30
40816;DHT22;26535;48.788;9.214;2023-06-26T11:21:46;32.00;57.50
40816;DHT22;26535;48.788;9.214;2023-06-26T11:24:13;32.30;57.60
40816;DHT22;26535;48.788;9.214;2023-06-26T11:26:43;32.30;58.00
40816;DHT22;26535;48.788;9.214;2023-06-26T11:29:10;31.90;57.80
40816;DHT22;26535;48.788;9.214;2023-06-26T11:31:38;31.90;58.30
40816;DHT22;26535;48.788;9.214;2023-06-26T11:34:07;31.90;58.20
40816;DHT22;26535;48.788;9.214;2023-06-26T11:36:34;32.30;58.30
40816;DHT22;26535;48.788;9.214;2023-06-26T11:39:04;32.50;57.70
40816;DHT22;26535;48.788;9.214;2023-06-26T11:41:34;32.80;57.00
40816;DHT22;26535;48.788;9.214;2023-06-26T11:44:01;32.70;57.20
40816;DHT22;26535;48.788;9.214;2023-06-26T11:46:27;32.90;56.90
40816;DHT22;26535;48.788;9.214;2023-06-26T11:48:54;33.10;57.00
40816;DHT22;26535;48.788;9.214;2023-06-26T11:51:20;33.90;56.70
40816;DHT22;26535;48.788;9.214;2023-06-26T11:53:47;34.80;55.70
40816;DHT22;26535;48.788;9.214;2023-06-26T11:56:14;35.90;54.20
40816;DHT22;26535;48.788;9.214;2023-06-26T11:59:00;36.30;53.30
40816;DHT22;26535;48.788;9.214;2023-06-26T12:01:37;36.70;53.00
40816;DHT22;26535;48.788;9.214;2023-06-26T12:04:05;36.80;53.30
40816;DHT22;26535;48.788;9.214;2023-06-26T12:06:40;37.20;53.50
40816;DHT22;26535;48.788;9.214;2023-06-26T12:09:09;37.00;53.80
40816;DHT22;26535;48.788;9.214;2023-06-26T12:11:38;36.00;55.10
40816;DHT22;26535;48.788;9.214;2023-06-26T12:14:05;34.60;56.90
40816;DHT22;26535;48.788;9.214;2023-06-26T12:16:34;34.50;57.70
40816;DHT22;26535;48.788;9.214;2023-06-26T12:19:00;34.00;57.80
40816;DHT22;26535;48.788;9.214;2023-06-26T12:24:13;33.80;58.40
40816;DHT22;26535;48.788;9.214;2023-06-26T12:26:44;34.60;57.40
40816;DHT22;26535;48.788;9.214;2023-06-26T12:29:16;35.20;56.50
40816;DHT22;26535;48.788;9.214;2023-06-26T12:31:54;36.10;56.00
40816;DHT22;26535;48.788;9.214;2023-06-26T12:34:25;37.00;54.50
40816;DHT22;26535;48.788;9.214;2023-06-26T12:36:51;38.30;54.20
40816;DHT22;26535;48.788;9.214;2023-06-26T12:39:21;38.60;52.60
40816;DHT22;26535;48.788;9.214;2023-06-26T12:41:49;38.70;52.50
40816;DHT22;26535;48.788;9.214;2023-06-26T12:46:49;39.10;51.90
40816;DHT22;26535;48.788;9.214;2023-06-26T12:49:15;39.20;52.20
40816;DHT22;26535;48.788;9.214;2023-06-26T12:51:41;39.30;51.60
40816;DHT22;26535;48.788;9.214;2023-06-26T12:54:08;39.20;51.70
40816;DHT22;26535;48.788;9.214;2023-06-26T12:56:34;39.90;50.80
40816;DHT22;26535;48.788;9.214;2023-06-26T12:59:00;39.70;51.00
40816;DHT22;26535;48.788;9.214;2023-06-26T13:01:26;40.50;50.10
40816;DHT22;26535;48.788;9.214;2023-06-26T13:03:53;40.10;49.90
40816;DHT22;26535;48.788;9.214;2023-06-26T13:06:20;39.80;50.00
40816;DHT22;26535;48.788;9.214;2023-06-26T13:08:46;39.90;50.30
40816;DHT22;26535;48.788;9.214;2023-06-26T13:11:11;39.80;50.10
40816;DHT22;26535;48.788;9.214;2023-06-26T13:13:37;39.30;50.30
40816;DHT22;26535;48.788;9.214;2023-06-26T13:16:03;39.50;50.30
40816;DHT22;26535;48.788;9.214;2023-06-26T13:18:28;38.30;51.20
40816;DHT22;26535;48.788;9.214;2023-06-26T13:20:54;37.90;51.90
40816;DHT22;26535;48.788;9.214;2023-06-26T13:23:20;38.30;51.50
40816;DHT22;26535;48.788;9.214;2023-06-26T13:25:45;38.20;51.40
40816;DHT22;26535;48.788;9.214;2023-06-26T13:28:11;37.90;51.40
40816;DHT22;26535;48.788;9.214;2023-06-26T13:30:37;37.90;51.80
40816;DHT22;26535;48.788;9.214;2023-06-26T13:33:03;39.30;50.40
40816;DHT22;26535;48.788;9.214;2023-06-26T13:35:29;40.00;49.40
40816;DHT22;26535;48.788;9.214;2023-06-26T13:37:55;39.90;48.80
40816;DHT22;26535;48.788;9.214;2023-06-26T13:40:20;39.40;49.00
40816;DHT22;26535;48.788;9.214;2023-06-26T13:42:46;39.50;49.00
40816;DHT22;26535;48.788;9.214;2023-06-26T13:45:12;39.10;48.80
40816;DHT22;26535;48.788;9.214;2023-06-26T13:47:38;39.90;48.80
40816;DHT22;26535;48.788;9.214;2023-06-26T13:50:08;39.60;48.30
40816;DHT22;26535;48.788;9.214;2023-06-26T13:52:34;39.40;48.20
40816;DHT22;26535;48.788;9.214;2023-06-26T13:55:00;39.60;47.60
40816;DHT22;26535;48.788;9.214;2023-06-26T13:57:26;40.10;47.20
40816;DHT22;26535;48.788;9.214;2023-06-26T13:59:53;40.20;46.40
40816;DHT22;26535;48.788;9.214;2023-06-26T14:02:18;40.10;46.10
40816;DHT22;26535;48.788;9.214;2023-06-26T14:04:44;40.30;45.60
40816;DHT22;26535;48.788;9.214;2023-06-26T14:07:10;40.40;45.60
40816;DHT22;26535;48.788;9.214;2023-06-26T14:09:35;40.40;45.30
40816;DHT22;26535;48.788;9.214;2023-06-26T14:12:01;41.10;45.90
40816;DHT22;26535;48.788;9.214;2023-06-26T14:14:27;40.70;45.10
40816;DHT22;26535;48.788;9.214;2023-06-26T14:16:53;40.90;44.90
40816;DHT22;26535;48.788;9.214;2023-06-26T14:19:19;40.50;44.80
40816;DHT22;26535;48.788;9.214;2023-06-26T14:21:44;41.10;44.80
40816;DHT22;26535;48.788;9.214;2023-06-26T14:24:10;41.10;44.80
40816;DHT22;26535;48.788;9.214;2023-06-26T14:26:36;41.10;44.20
40816;DHT22;26535;48.788;9.214;2023-06-26T14:29:02;40.70;44.60
40816;DHT22;26535;48.788;9.214;2023-06-26T14:31:28;40.70;44.60
40816;DHT22;26535;48.788;9.214;2023-06-26T14:33:54;39.90;45.10
40816;DHT22;26535;48.788;9.214;2023-06-26T14:36:20;39.40;46.10
40816;DHT22;26535;48.788;9.214;2023-06-26T14:38:46;39.10;45.70
40816;DHT22;26535;48.788;9.214;2023-06-26T14:41:12;38.60;46.20
40816;DHT22;26535;48.788;9.214;2023-06-26T14:43:40;38.80;46.50
40816;DHT22;26535;48.788;9.214;2023-06-26T14:46:06;39.20;45.80
40816;DHT22;26535;48.788;9.214;2023-06-26T14:48:32;39.50;45.40
40816;DHT22;26535;48.788;9.214;2023-06-26T14:50:57;39.50;45.10
40816;DHT22;26535;48.788;9.214;2023-06-26T14:53:23;39.90;45.30
40816;DHT22;26535;48.788;9.214;2023-06-26T14:55:50;40.10;45.20
40816;DHT22;26535;48.788;9.214;2023-06-26T14:58:15;40.20;45.00
40816;DHT22;26535;48.788;9.214;2023-06-26T15:00:41;40.10;45.10
40816;DHT22;26535;48.788;9.214;2023-06-26T15:03:07;40.80;45.00
40816;DHT22;26535;48.788;9.214;2023-06-26T15:05:32;40.20;45.40
40816;DHT22;26535;48.788;9.214;2023-06-26T15:07:58;39.80;45.80
40816;DHT22;26535;48.788;9.214;2023-06-26T15:10:24;39.10;46.40
40816;DHT22;26535;48.788;9.214;2023-06-26T15:12:50;39.10;46.30
40816;DHT22;26535;48.788;9.214;2023-06-26T15:15:15;38.20;46.60
40816;DHT22;26535;48.788;9.214;2023-06-26T15:17:43;38.80;46.80
40816;DHT22;26535;48.788;9.214;2023-06-26T15:20:08;39.50;46.20
40816;DHT22;26535;48.788;9.214;2023-06-26T15:22:34;39.30;46.10
40816;DHT22;26535;48.788;9.214;2023-06-26T15:25:00;39.20;46.10
40816;DHT22;26535;48.788;9.214;2023-06-26T15:27:25;38.80;46.30
40816;DHT22;26535;48.788;9.214;2023-06-26T15:29:51;38.20;46.90
40816;DHT22;26535;48.788;9.214;2023-06-26T15:32:17;38.00;47.30
40816;DHT22;26535;48.788;9.214;2023-06-26T15:34:43;36.60;48.20
40816;DHT22;26535;48.788;9.214;2023-06-26T15:37:09;36.30;48.70
40816;DHT22;26535;48.788;9.214;2023-06-26T15:39:34;36.40;48.50
40816;DHT22;26535;48.788;9.214;2023-06-26T15:42:00;36.00;48.70
40816;DHT22;26535;48.788;9.214;2023-06-26T15:44:28;35.70;48.90
40816;DHT22;26535;48.788;9.214;2023-06-26T15:46:53;35.30;49.20
40816;DHT22;26535;48.788;9.214;2023-06-26T15:49:19;34.80;49.40
40816;DHT22;26535;48.788;9.214;2023-06-26T15:51:45;34.80;49.60
40816;DHT22;26535;48.788;9.214;2023-06-26T15:54:13;35.00;49.50
40816;DHT22;26535;48.788;9.214;2023-06-26T15:56:38;34.90;49.50
40816;DHT22;26535;48.788;9.214;2023-06-26T15:59:05;35.00;49.50
40816;DHT22;26535;48.788;9.214;2023-06-26T16:01:31;34.60;49.90
40816;DHT22;26535;48.788;9.214;2023-06-26T16:03:56;33.90;51.00
40816;DHT22;26535;48.788;9.214;2023-06-26T16:06:22;33.20;51.80
40816;DHT22;26535;48.788;9.214;2023-06-26T16:08:48;33.00;52.30
40816;DHT22;26535;48.788;9.214;2023-06-26T16:11:15;33.00;52.40
40816;DHT22;26535;48.788;9.214;2023-06-26T16:13:40;32.80;52.30
40816;DHT22;26535;48.788;9.214;2023-06-26T16:16:06;32.40;52.80
40816;DHT22;26535;48.788;9.214;2023-06-26T16:18:33;32.20;53.40
40816;DHT22;26535;48.788;9.214;2023-06-26T16:20:59;31.70;53.90
40816;DHT22;26535;48.788;9.214;2023-06-26T16:23:25;31.50;54.10
40816;DHT22;26535;48.788;9.214;2023-06-26T16:25:50;31.60;54.30
40816;DHT22;26535;48.788;9.214;2023-06-26T16:28:16;32.80;53.10
40816;DHT22;26535;48.788;9.214;2023-06-26T16:30:42;33.10;51.60
40816;DHT22;26535;48.788;9.214;2023-06-26T16:33:08;32.70;51.70
40816;DHT22;26535;48.788;9.214;2023-06-26T16:35:34;32.40;52.10
40816;DHT22;26535;48.788;9.214;2023-06-26T16:38:04;32.80;51.80
40816;DHT22;26535;48.788;9.214;2023-06-26T16:40:35;33.00;51.20
40816;DHT22;26535;48.788;9.214;2023-06-26T16:43:01;33.60;49.80
40816;DHT22;26535;48.788;9.214;2023-06-26T16:45:26;33.70;49.60
40816;DHT22;26535;48.788;9.214;2023-06-26T16:47:52;34.00;49.20
40816;DHT22;26535;48.788;9.214;2023-06-26T16:50:18;34.20;49.00
40816;DHT22;26535;48.788;9.214;2023-06-26T16:52:45;34.00;48.60
40816;DHT22;26535;48.788;9.214;2023-06-26T16:55:10;33.70;49.00
40816;DHT22;26535;48.788;9.214;2023-06-26T16:57:36;33.40;49.20
40816;DHT22;26535;48.788;9.214;2023-06-26T17:00:03;33.10;48.70
40816;DHT22;26535;48.788;9.214;2023-06-26T17:02:29;32.80;48.50
40816;DHT22;26535;48.788;9.214;2023-06-26T17:04:58;32.60;48.20
40816;DHT22;26535;48.788;9.214;2023-06-26T17:07:24;31.90;48.30
40816;DHT22;26535;48.788;9.214;2023-06-26T17:09:50;31.50;48.30
40816;DHT22;26535;48.788;9.214;2023-06-26T17:12:16;31.10;48.80
40816;DHT22;26535;48.788;9.214;2023-06-26T17:14:42;31.00;48.30
40816;DHT22;26535;48.788;9.214;2023-06-26T17:17:07;31.40;47.90
40816;DHT22;26535;48.788;9.214;2023-06-26T17:19:34;32.20;47.60
40816;DHT22;26535;48.788;9.214;2023-06-26T17:22:04;32.80;46.20
40816;DHT22;26535;48.788;9.214;2023-06-26T17:24:30;33.40;44.90
40816;DHT22;26535;48.788;9.214;2023-06-26T17:27:10;33.30;44.20
40816;DHT22;26535;48.788;9.214;2023-06-26T17:29:39;33.20;44.30
40816;DHT22;26535;48.788;9.214;2023-06-26T17:32:06;33.00;44.10
40816;DHT22;26535;48.788;9.214;2023-06-26T17:34:32;33.00;43.80
40816;DHT22;26535;48.788;9.214;2023-06-26T17:36:58;33.20;43.80
40816;DHT22;26535;48.788;9.214;2023-06-26T17:39:23;33.20;43.70
40816;DHT22;26535;48.788;9.214;2023-06-26T17:41:52;33.00;44.00
40816;DHT22;26535;48.788;9.214;2023-06-26T17:44:18;32.40;44.80
40816;DHT22;26535;48.788;9.214;2023-06-26T17:46:44;32.20;45.00
40816;DHT22;26535;48.788;9.214;2023-06-26T17:49:09;32.20;45.00
40816;DHT22;26535;48.788;9.214;2023-06-26T17:51:35;32.10;45.10
40816;DHT22;26535;48.788;9.214;2023-06-26T17:54:01;31.70;45.40
40816;DHT22;26535;48.788;9.214;2023-06-26T17:56:27;31.80;45.60
40816;DHT22;26535;48.788;9.214;2023-06-26T17:58:53;31.70;45.40
40816;DHT22;26535;48.788;9.214;2023-06-26T18:01:19;30.80;45.70
40816;DHT22;26535;48.788;9.214;2023-06-26T18:03:44;30.00;46.30
40816;DHT22;26535;48.788;9.214;2023-06-26T18:06:10;29.60;46.80
40816;DHT22;26535;48.788;9.214;2023-06-26T18:08:36;29.30;46.50
40816;DHT22;26535;48.788;9.214;2023-06-26T18:11:01;29.40;46.50
40816;DHT22;26535;48.788;9.214;2023-06-26T18:13:28;29.30;46.30
40816;DHT22;26535;48.788;9.214;2023-06-26T18:15:56;29.10;46.50
40816;DHT22;26535;48.788;9.214;2023-06-26T18:18:22;29.10;46.50
40816;DHT22;26535;48.788;9.214;2023-06-26T18:20:48;29.00;46.50
40816;DHT22;26535;48.788;9.214;2023-06-26T18:23:13;28.80;46.90
40816;DHT22;26535;48.788;9.214;2023-06-26T18:25:39;28.70;47.00
40816;DHT22;26535;48.788;9.214;2023-06-26T18:28:05;28.90;46.90
40816;DHT22;26535;48.788;9.214;2023-06-26T18:30:30;28.80;47.20
40816;DHT22;26535;48.788;9.214;2023-06-26T18:32:56;28.60;47.70
40816;DHT22;26535;48.788;9.214;2023-06-26T18:35:22;28.30;48.10
40816;DHT22;26535;48.788;9.214;2023-06-26T18:37:48;27.80;48.60
40816;DHT22;26535;48.788;9.214;2023-06-26T18:40:14;27.30;49.40
40816;DHT22;26535;48.788;9.214;2023-06-26T18:42:43;26.90;49.90
40816;DHT22;26535;48.788;9.214;2023-06-26T18:45:11;26.60;50.50
40816;DHT22;26535;48.788;9.214;2023-06-26T18:47:37;26.30;51.00
40816;DHT22;26535;48.788;9.214;2023-06-26T18:50:03;26.10;51.50
40816;DHT22;26535;48.788;9.214;2023-06-26T18:52:29;25.80;52.00
40816;DHT22;26535;48.788;9.214;2023-06-26T18:54:54;25.50;52.50
40816;DHT22;26535;48.788;9.214;2023-06-26T18:57:20;25.30;53.00
40816;DHT22;26535;48.788;9.214;2023-06-26T18:59:46;25.10;53.40
40816;DHT22;26535;48.788;9.214;2023-06-26T19:02:11;24.90;53.90
40816;DHT22;26535;48.788;9.214;2023-06-26T19:04:37;24.70;54.20
40816;DHT22;26535;48.788;9.214;2023-06-26T19:07:04;24.70;54.30
40816;DHT22;26535;48.788;9.214;2023-06-26T19:09:30;24.60;54.60
40816;DHT22;26535;48.788;9.214;2023-06-26T19:11:56;24.40;54.90
40816;DHT22;26535;48.788;9.214;2023-06-26T19:14:22;24.40;55.20
40816;DHT22;26535;48.788;9.214;2023-06-26T19:16:48;24.30;55.40
40816;DHT22;26535;48.788;9.214;2023-06-26T19:19:14;24.10;55.70
40816;DHT22;26535;48.788;9.214;2023-06-26T19:21:39;24.10;55.80
40816;DHT22;26535;48.788;9.214;2023-06-26T19:24:05;24.00;56.00
40816;DHT22;26535;48.788;9.214;2023-06-26T19:26:31;23.90;56.10
40816;DHT22;26535;48.788;9.214;2023-06-26T19:29:00;23.80;56.30
40816;DHT22;26535;48.788;9.214;2023-06-26T19:31:26;23.70;56.50
40816;DHT22;26535;48.788;9.214;2023-06-26T19:33:52;23.60;56.70
40816;DHT22;26535;48.788;9.214;2023-06-26T19:36:19;23.50;56.70
40816;DHT22;26535;48.788;9.214;2023-06-26T19:38:47;23.40;56.80
40816;DHT22;26535;48.788;9.214;2023-06-26T19:41:12;23.40;57.00
40816;DHT22;26535;48.788;9.214;2023-06-26T19:43:38;23.30;57.20
40816;DHT22;26535;48.788;9.214;2023-06-26T19:46:04;23.20;57.30
40816;DHT22;26535;48.788;9.214;2023-06-26T19:48:30;23.20;57.40
40816;DHT22;26535;48.788;9.214;2023-06-26T19:50:56;23.10;57.40
40816;DHT22;26535;48.788;9.214;2023-06-26T19:53:21;23.10;57.40
40816;DHT22;26535;48.788;9.214;2023-06-26T19:55:47;23.10;57.60
40816;DHT22;26535;48.788;9.214;2023-06-26T19:58:13;23.00;57.80
40816;DHT22;26535;48.788;9.214;2023-06-26T20:00:39;22.90;57.90
40816;DHT22;26535;48.788;9.214;2023-06-26T20:03:05;22.90;58.10
40816;DHT22;26535;48.788;9.214;2023-06-26T20:05:30;22.80;58.20
40816;DHT22;26535;48.788;9.214;2023-06-26T20:07:56;22.80;58.30
40816;DHT22;26535;48.788;9.214;2023-06-26T20:10:22;22.70;58.40
40816;DHT22;26535;48.788;9.214;2023-06-26T20:12:48;22.70;58.50
40816;DHT22;26535;48.788;9.214;2023-06-26T20:15:14;22.70;58.70
40816;DHT22;26535;48.788;9.214;2023-06-26T20:17:40;22.60;58.80
40816;DHT22;26535;48.788;9.214;2023-06-26T20:20:06;22.50;59.00
40816;DHT22;26535;48.788;9.214;2023-06-26T20:22:32;22.50;58.90
40816;DHT22;26535;48.788;9.214;2023-06-26T20:24:58;22.50;59.20
40816;DHT22;26535;48.788;9.214;2023-06-26T20:27:23;22.40;59.30
40816;DHT22;26535;48.788;9.214;2023-06-26T20:29:49;22.40;59.60
40816;DHT22;26535;48.788;9.214;2023-06-26T20:32:16;22.30;59.70
40816;DHT22;26535;48.788;9.214;2023-06-26T20:34:41;22.30;60.00
40816;DHT22;26535;48.788;9.214;2023-06-26T20:37:07;22.20;60.10
40816;DHT22;26535;48.788;9.214;2023-06-26T20:39:33;22.20;60.40